Time;durP1;ratioP1;P1;durP2;ratioP2;P2;SDS_P1;SDS_P2;PMS_P1;PMS_P2;Temp;Humidity;BMP_temperature;BMP_pressure;BME280_temperature;BME280_humidity;BME280_pressure;Samples;Min_cycle;Max_cycle;Signal;HPM_P1;HPM_P2
2022/08/12 00:44:14;;;;;;;60.33;4.00;;;;;;;;;;5075224;28;20418;-67
2022/08/12 00:46:47;;;;;;;60.40;4.13;;;;;;;;;;5075680;28;20451;-67
2022/08/12 00:49:15;;;;;;;59.80;3.80;;;;;;;;;;5075248;28;20450;-67
2022/08/12 00:54:28;;;;;;;59.20;3.30;;;;;;;;;;5075399;28;20434;-67
2022/08/12 00:56:55;;;;;;;59.00;3.30;;;;;;;;;;5075148;28;20940;-67
2022/08/12 00:59:23;;;;;;;60.27;3.80;;;;;;;;;;5075020;28;20827;-67
2022/08/12 01:01:53;;;;;;;59.47;3.93;;;;;;;;;;5075253;28;20516;-67
2022/08/12 01:12:37;;;;;;;59.40;3.33;;;;;;;;;;5074949;28;20435;-67
2022/08/12 01:15:05;;;;;;;59.50;3.70;;;;;;;;;;5074963;28;20447;-67
2022/08/12 01:17:33;;;;;;;58.77;3.30;;;;;;;;;;5074778;28;20487;-67
2022/08/12 01:20:03;;;;;;;59.07;3.70;;;;;;;;;;5074469;28;20447;-67
2022/08/12 01:22:34;;;;;;;59.00;3.70;;;;;;;;;;5075088;28;20473;-67
2022/08/12 01:25:06;;;;;;;58.47;3.10;;;;;;;;;;5074915;28;20451;-67
2022/08/12 01:27:35;;;;;;;60.33;3.93;;;;;;;;;;5074860;28;20443;-67
2022/08/12 01:30:04;;;;;;;59.10;3.10;;;;;;;;;;5074306;28;20939;-67
2022/08/12 01:32:36;;;;;;;60.20;3.27;;;;;;;;;;5074442;28;21017;-67
2022/08/12 01:35:05;;;;;;;59.17;3.83;;;;;;;;;;5074776;28;20943;-67
2022/08/12 01:37:36;;;;;;;59.10;3.70;;;;;;;;;;5074589;28;20444;-67
2022/08/12 01:40:05;;;;;;;59.07;3.43;;;;;;;;;;5074333;28;20807;-67
2022/08/12 01:42:40;;;;;;;59.37;4.20;;;;;;;;;;5074444;28;20463;-67
2022/08/12 01:45:07;;;;;;;58.87;3.40;;;;;;;;;;5072880;28;20541;-67
2022/08/12 01:47:41;;;;;;;59.43;3.47;;;;;;;;;;5074268;28;20459;-67
2022/08/12 01:50:13;;;;;;;59.77;3.97;;;;;;;;;;5074059;28;20447;-67
2022/08/12 01:52:45;;;;;;;59.40;3.57;;;;;;;;;;5073937;28;20826;-67
2022/08/12 01:55:14;;;;;;;60.77;4.13;;;;;;;;;;5073232;28;20947;-67
2022/08/12 01:57:47;;;;;;;58.87;3.67;;;;;;;;;;5074224;28;20521;-67
2022/08/12 02:00:16;;;;;;;59.30;3.67;;;;;;;;;;5073940;28;20447;-67
2022/08/12 02:02:46;;;;;;;59.30;3.40;;;;;;;;;;5073993;28;20867;-67
2022/08/12 02:11:20;;;;;;;59.17;3.90;;;;;;;;;;5073960;28;20439;-67
2022/08/12 02:13:57;;;;;;;61.27;3.77;;;;;;;;;;5074221;28;20459;-67
2022/08/12 02:16:30;;;;;;;59.40;3.67;;;;;;;;;;5074018;28;20701;-67
2022/08/12 02:19:04;;;;;;;60.43;3.90;;;;;;;;;;5073497;28;20483;-67
2022/08/12 02:21:37;;;;;;;59.73;3.80;;;;;;;;;;5073751;28;20477;-67
2022/08/12 02:24:05;;;;;;;60.03;3.67;;;;;;;;;;5073677;28;20923;-67
2022/08/12 02:26:36;;;;;;;60.10;3.27;;;;;;;;;;5073818;28;20835;-67
2022/08/12 02:29:06;;;;;;;59.07;3.63;;;;;;;;;;5073380;28;20542;-67
2022/08/12 02:31:33;;;;;;;59.70;3.50;;;;;;;;;;5073492;28;20844;-67
2022/08/12 02:34:01;;;;;;;59.23;3.23;;;;;;;;;;5073465;28;20532;-67
2022/08/12 02:36:31;;;;;;;58.97;3.53;;;;;;;;;;5073339;28;20454;-67
2022/08/12 02:38:58;;;;;;;60.77;4.27;;;;;;;;;;5072939;28;20494;-67
2022/08/12 02:41:27;;;;;;;59.60;4.07;;;;;;;;;;5073500;28;20479;-67
2022/08/12 02:43:56;;;;;;;59.27;3.63;;;;;;;;;;5073369;28;20443;-67
2022/08/12 02:46:29;;;;;;;59.30;3.43;;;;;;;;;;5073214;28;20551;-67
2022/08/12 02:48:59;;;;;;;60.00;3.90;;;;;;;;;;5072766;28;20435;-67
2022/08/12 02:51:32;;;;;;;59.23;3.50;;;;;;;;;;5072959;28;21026;-67
2022/08/12 02:54:02;;;;;;;59.60;3.90;;;;;;;;;;5073227;28;20443;-67
2022/08/12 02:56:30;;;;;;;59.30;3.83;;;;;;;;;;5073334;28;20454;-67
2022/08/12 02:58:57;;;;;;;60.77;4.90;;;;;;;;;;5072524;28;20489;-67
2022/08/12 03:01:32;;;;;;;59.17;3.50;;;;;;;;;;5072696;28;20467;-67
2022/08/12 03:04:01;;;;;;;59.40;3.70;;;;;;;;;;5072853;28;20446;-67
2022/08/12 03:06:33;;;;;;;59.60;3.60;;;;;;;;;;5072787;28;20447;-67
2022/08/12 03:09:00;;;;;;;59.40;3.97;;;;;;;;;;5072591;28;20447;-67
2022/08/12 03:11:29;;;;;;;59.50;3.90;;;;;;;;;;5072567;28;21009;-67
2022/08/12 03:13:58;;;;;;;59.70;4.10;;;;;;;;;;5072590;28;20451;-67
2022/08/12 03:16:30;;;;;;;58.90;3.27;;;;;;;;;;5072807;28;20457;-67
2022/08/12 03:18:57;;;;;;;60.23;4.10;;;;;;;;;;5072381;28;20491;-67
2022/08/12 03:21:25;;;;;;;60.10;3.70;;;;;;;;;;5072678;28;20473;-67
2022/08/12 03:23:53;;;;;;;61.17;3.80;;;;;;;;;;5072660;28;20450;-67
2022/08/12 03:26:24;;;;;;;59.10;3.40;;;;;;;;;;5072388;28;20923;-67
2022/08/12 03:28:55;;;;;;;59.90;4.33;;;;;;;;;;5072267;28;20452;-67
2022/08/12 03:31:24;;;;;;;60.67;4.20;;;;;;;;;;5072446;28;20471;-67
2022/08/12 03:33:53;;;;;;;59.47;3.90;;;;;;;;;;5072462;28;20522;-67
2022/08/12 03:36:22;;;;;;;60.57;3.67;;;;;;;;;;5072210;28;20943;-67
2022/08/12 03:39:17;;;;;;;59.23;3.60;;;;;;;;;;5071699;28;20569;-67
2022/08/12 03:41:40;;;;;;;59.67;4.07;;;;;;;;;;5072004;28;21040;-67
2022/08/12 04:00:44;;;;;;;59.17;3.80;;;;;;;;;;5071751;28;20468;-67
2022/08/12 04:05:54;;;;;;;60.30;4.23;;;;;;;;;;5071499;28;20443;-67
2022/08/12 04:08:23;;;;;;;60.07;3.80;;;;;;;;;;5071977;28;20431;-67
2022/08/12 04:13:35;;;;;;;59.47;3.97;;;;;;;;;;5071912;28;20919;-67
2022/08/12 04:16:05;;;;;;;59.70;3.33;;;;;;;;;;5071851;28;20447;-67
2022/08/12 04:18:32;;;;;;;59.67;3.47;;;;;;;;;;5070801;28;20850;-67
2022/08/12 04:21:01;;;;;;;61.40;4.67;;;;;;;;;;5071624;28;20459;-67
2022/08/12 04:23:30;;;;;;;59.73;3.80;;;;;;;;;;5072133;28;20444;-67
2022/08/12 04:25:57;;;;;;;59.80;4.10;;;;;;;;;;5071752;28;20455;-67
2022/08/12 04:28:26;;;;;;;61.30;3.30;;;;;;;;;;5071503;28;20475;-67
2022/08/12 04:30:56;;;;;;;60.33;4.10;;;;;;;;;;5071307;28;20558;-67
2022/08/12 04:33:25;;;;;;;59.70;3.97;;;;;;;;;;5071683;28;20451;-67
2022/08/12 04:35:53;;;;;;;60.27;4.37;;;;;;;;;;5071763;28;20890;-67
2022/08/12 04:38:21;;;;;;;60.13;4.10;;;;;;;;;;5071590;28;20453;-67
2022/08/12 04:40:50;;;;;;;59.70;3.70;;;;;;;;;;5071327;28;20500;-67
2022/08/12 04:43:17;;;;;;;60.00;4.17;;;;;;;;;;5071457;28;20448;-67
2022/08/12 04:45:48;;;;;;;60.27;4.13;;;;;;;;;;5071639;28;20447;-67
2022/08/12 04:48:15;;;;;;;59.30;3.40;;;;;;;;;;5071614;28;20454;-66
2022/08/12 04:50:43;;;;;;;59.97;4.23;;;;;;;;;;5071297;28;20462;-67
2022/08/12 04:53:11;;;;;;;60.20;4.40;;;;;;;;;;5071359;28;20457;-67
2022/08/12 04:55:41;;;;;;;59.30;4.00;;;;;;;;;;5071438;28;20451;-67
2022/08/12 04:58:09;;;;;;;59.53;4.00;;;;;;;;;;5071225;28;20875;-67
2022/08/12 05:00:37;;;;;;;60.00;3.83;;;;;;;;;;5071161;28;20439;-67
2022/08/12 05:03:05;;;;;;;62.67;4.47;;;;;;;;;;5071441;28;20443;-67
2022/08/12 05:05:33;;;;;;;59.83;4.13;;;;;;;;;;5071325;28;20936;-67
2022/08/12 05:08:00;;;;;;;60.37;4.33;;;;;;;;;;5071281;28;20443;-67
2022/08/12 05:10:27;;;;;;;60.77;4.27;;;;;;;;;;5070839;28;20454;-67
2022/08/12 05:12:58;;;;;;;59.80;4.27;;;;;;;;;;5071411;28;20453;-67
2022/08/12 05:15:25;;;;;;;60.83;4.30;;;;;;;;;;5071496;28;20451;-67
2022/08/12 05:17:52;;;;;;;61.73;4.53;;;;;;;;;;5071328;28;20530;-67
2022/08/12 05:20:20;;;;;;;58.97;3.30;;;;;;;;;;5070850;28;20490;-67
2022/08/12 05:22:49;;;;;;;60.37;4.40;;;;;;;;;;5071170;28;20557;-67
2022/08/12 05:25:16;;;;;;;59.47;4.10;;;;;;;;;;5071001;28;20541;-67
2022/08/12 05:27:44;;;;;;;59.40;3.97;;;;;;;;;;5071192;28;20478;-67
2022/08/12 05:30:14;;;;;;;59.00;3.67;;;;;;;;;;5072680;28;20449;-67
2022/08/12 05:32:41;;;;;;;59.97;3.73;;;;;;;;;;5074604;28;20879;-67
2022/08/12 05:35:09;;;;;;;59.70;4.10;;;;;;;;;;5074600;28;20443;-67
2022/08/12 05:37:36;;;;;;;59.60;3.93;;;;;;;;;;5074420;28;20469;-67
2022/08/12 05:40:05;;;;;;;60.57;4.00;;;;;;;;;;5074299;28;20855;-67
2022/08/12 05:42:32;;;;;;;58.90;3.10;;;;;;;;;;5074295;28;20471;-67
2022/08/12 05:45:00;;;;;;;59.30;3.97;;;;;;;;;;5074350;28;20961;-67
2022/08/12 05:47:28;;;;;;;59.50;4.03;;;;;;;;;;5074418;28;20854;-67
2022/08/12 05:49:57;;;;;;;59.97;4.23;;;;;;;;;;5073918;28;20456;-67
2022/08/12 05:52:25;;;;;;;60.33;4.20;;;;;;;;;;5074176;28;20536;-67
2022/08/12 05:54:52;;;;;;;59.27;3.97;;;;;;;;;;5074336;28;20474;-67
2022/08/12 05:57:19;;;;;;;58.90;4.17;;;;;;;;;;5074260;28;20447;-67
2022/08/12 05:59:46;;;;;;;62.60;3.87;;;;;;;;;;5073861;28;20490;-67
2022/08/12 06:02:14;;;;;;;59.93;4.40;;;;;;;;;;5074116;28;20482;-67
2022/08/12 06:04:42;;;;;;;65.90;5.03;;;;;;;;;;5073954;28;20943;-67
2022/08/12 06:07:11;;;;;;;59.70;3.80;;;;;;;;;;5073962;28;20527;-67
2022/08/12 06:09:38;;;;;;;59.33;3.73;;;;;;;;;;5073837;28;20825;-67
2022/08/12 06:12:05;;;;;;;59.80;4.40;;;;;;;;;;5073756;28;21009;-67
2022/08/12 06:14:33;;;;;;;58.73;3.50;;;;;;;;;;5073805;28;20444;-67
2022/08/12 06:17:01;;;;;;;60.20;3.70;;;;;;;;;;5073746;28;20820;-67
2022/08/12 06:19:28;;;;;;;60.80;3.80;;;;;;;;;;5073325;28;20483;-67
2022/08/12 06:21:57;;;;;;;59.67;3.90;;;;;;;;;;5073847;28;20538;-67
2022/08/12 06:24:27;;;;;;;58.97;3.80;;;;;;;;;;5073805;28;20485;-67
2022/08/12 06:26:55;;;;;;;59.97;3.90;;;;;;;;;;5073696;28;20943;-67
2022/08/12 06:29:22;;;;;;;59.80;3.80;;;;;;;;;;5073202;28;20443;-66
2022/08/12 06:31:50;;;;;;;59.07;3.43;;;;;;;;;;5073397;28;20468;-67
2022/08/12 06:34:17;;;;;;;59.43;4.33;;;;;;;;;;5073688;28;20447;-67
2022/08/12 06:36:45;;;;;;;60.00;3.70;;;;;;;;;;5073619;28;20447;-67
2022/08/12 06:39:14;;;;;;;58.90;3.63;;;;;;;;;;5073059;28;20483;-67
2022/08/12 06:44:25;;;;;;;59.17;3.47;;;;;;;;;;5073285;28;20426;-67
2022/08/12 06:46:53;;;;;;;59.40;3.90;;;;;;;;;;5073420;28;20522;-67
2022/08/12 06:49:20;;;;;;;58.30;3.30;;;;;;;;;;5072817;28;20447;-67
2022/08/12 06:51:47;;;;;;;59.37;3.67;;;;;;;;;;5073019;28;20486;-67
2022/08/12 06:54:15;;;;;;;59.93;3.83;;;;;;;;;;5073057;28;20444;-67
2022/08/12 06:56:43;;;;;;;59.00;3.40;;;;;;;;;;5072957;28;20451;-67
2022/08/12 06:59:12;;;;;;;58.80;3.37;;;;;;;;;;5072795;28;20528;-67
2022/08/12 07:01:40;;;;;;;59.13;3.90;;;;;;;;;;5072845;28;20517;-67
2022/08/12 07:04:07;;;;;;;60.17;3.60;;;;;;;;;;5073058;28;20444;-67
2022/08/12 07:06:34;;;;;;;60.00;3.67;;;;;;;;;;5072957;28;20451;-67
2022/08/12 07:09:03;;;;;;;59.10;3.23;;;;;;;;;;5072465;28;20478;-67
2022/08/12 07:11:32;;;;;;;59.00;3.70;;;;;;;;;;5072594;28;20502;-67
2022/08/12 07:14:02;;;;;;;59.13;3.23;;;;;;;;;;5072635;28;20458;-67
2022/08/12 07:16:50;;;;;;;58.67;3.30;;;;;;;;;;5072624;28;20968;-67
2022/08/12 07:19:18;;;;;;;58.40;3.20;;;;;;;;;;5072309;28;20849;-67
2022/08/12 07:21:45;;;;;;;59.30;3.10;;;;;;;;;;5072358;28;21024;-67
2022/08/12 07:24:12;;;;;;;58.73;3.00;;;;;;;;;;5072471;28;20456;-67
2022/08/12 07:26:41;;;;;;;58.50;3.30;;;;;;;;;;5072615;28;20452;-67
2022/08/12 07:29:09;;;;;;;59.37;3.20;;;;;;;;;;5072048;28;21019;-67
2022/08/12 07:31:36;;;;;;;58.90;3.10;;;;;;;;;;5072368;28;20470;-67
2022/08/12 07:34:03;;;;;;;58.20;2.77;;;;;;;;;;5072321;28;20446;-67
2022/08/12 07:36:32;;;;;;;60.60;3.30;;;;;;;;;;5072139;28;20454;-67
2022/08/12 07:39:01;;;;;;;58.20;3.27;;;;;;;;;;5072062;28;20454;-67
2022/08/12 07:41:30;;;;;;;57.90;3.17;;;;;;;;;;5072109;28;20990;-67
2022/08/12 07:44:00;;;;;;;58.70;3.30;;;;;;;;;;5072304;28;20485;-67
2022/08/12 07:46:29;;;;;;;59.03;3.50;;;;;;;;;;5072174;28;20914;-67
2022/08/12 07:48:57;;;;;;;58.83;3.13;;;;;;;;;;5071688;28;20454;-67
2022/08/12 07:51:25;;;;;;;58.67;3.07;;;;;;;;;;5071901;28;20470;-67
2022/08/12 07:53:52;;;;;;;64.97;4.00;;;;;;;;;;5071697;28;20488;-67
2022/08/12 07:56:19;;;;;;;59.27;3.17;;;;;;;;;;5072054;28;20942;-67
2022/08/12 07:58:47;;;;;;;65.23;3.30;;;;;;;;;;5071567;28;20446;-67
2022/08/12 08:01:16;;;;;;;59.27;3.60;;;;;;;;;;5071695;28;20909;-67
2022/08/12 08:06:25;;;;;;;58.67;2.83;;;;;;;;;;5071625;28;20775;-67
2022/08/12 08:08:55;;;;;;;58.87;2.97;;;;;;;;;;5071675;28;20444;-67
2022/08/12 08:14:07;;;;;;;58.67;3.10;;;;;;;;;;5071875;28;20791;-68
2022/08/12 08:16:36;;;;;;;59.17;4.17;;;;;;;;;;5071942;28;20459;-68
2022/08/12 08:19:03;;;;;;;58.63;3.00;;;;;;;;;;5071553;28;20439;-68
2022/08/12 08:21:34;;;;;;;58.30;2.87;;;;;;;;;;5071680;28;20479;-68
2022/08/12 08:24:17;;;;;;;60.30;4.23;;;;;;;;;;5071817;28;20457;-68
2022/08/12 08:26:46;;;;;;;58.37;2.67;;;;;;;;;;5072004;28;20500;-66
2022/08/12 08:29:13;;;;;;;58.87;3.40;;;;;;;;;;5071361;28;20497;-66
2022/08/12 08:31:44;;;;;;;58.47;2.93;;;;;;;;;;5071658;28;20463;-66
2022/08/12 08:34:11;;;;;;;58.47;3.10;;;;;;;;;;5071663;28;20451;-66
2022/08/12 08:36:39;;;;;;;58.20;2.53;;;;;;;;;;5071503;28;20502;-66
2022/08/12 08:39:06;;;;;;;58.43;2.97;;;;;;;;;;5071191;28;20446;-66
2022/08/12 08:44:19;;;;;;;58.50;3.97;;;;;;;;;;5071655;28;20944;-66
2022/08/12 08:46:48;;;;;;;58.70;3.20;;;;;;;;;;5071452;28;20781;-66
2022/08/12 08:49:15;;;;;;;58.27;2.80;;;;;;;;;;5071054;28;20497;-66
2022/08/12 08:51:43;;;;;;;58.23;2.50;;;;;;;;;;5071339;28;20482;-66
2022/08/12 08:54:11;;;;;;;57.97;2.70;;;;;;;;;;5071494;28;20453;-67
2022/08/12 08:56:48;;;;;;;58.23;2.70;;;;;;;;;;5071557;28;20454;-66
2022/08/12 08:59:15;;;;;;;58.30;2.80;;;;;;;;;;5071186;28;20510;-66
2022/08/12 09:01:43;;;;;;;58.50;2.90;;;;;;;;;;5071156;28;20494;-67
2022/08/12 09:04:11;;;;;;;58.20;2.60;;;;;;;;;;5073190;28;20530;-66
2022/08/12 09:06:40;;;;;;;58.30;3.03;;;;;;;;;;5075338;28;20614;-66
2022/08/12 09:09:07;;;;;;;58.40;2.90;;;;;;;;;;5074848;28;20447;-66
2022/08/12 09:14:19;;;;;;;58.40;2.70;;;;;;;;;;5075147;28;20419;-67
2022/08/12 09:16:46;;;;;;;58.77;2.40;;;;;;;;;;5075168;28;20534;-67
2022/08/12 09:19:16;;;;;;;58.30;2.60;;;;;;;;;;5074529;28;20457;-67
2022/08/12 09:21:45;;;;;;;58.20;2.80;;;;;;;;;;5074751;28;20912;-67
2022/08/12 09:24:17;;;;;;;58.27;2.50;;;;;;;;;;5074888;28;20537;-67
2022/08/12 09:26:45;;;;;;;58.17;2.90;;;;;;;;;;5074703;28;20494;-67
2022/08/12 09:29:12;;;;;;;59.23;2.53;;;;;;;;;;5074540;28;20447;-67
2022/08/12 09:31:40;;;;;;;58.13;2.50;;;;;;;;;;5074730;28;20468;-66
2022/08/12 09:34:09;;;;;;;58.10;2.40;;;;;;;;;;5074764;28;20447;-67
2022/08/12 09:36:39;;;;;;;57.87;2.50;;;;;;;;;;5074630;28;20479;-67
2022/08/12 09:39:07;;;;;;;58.40;2.50;;;;;;;;;;5074273;28;20538;-66
2022/08/12 09:41:39;;;;;;;58.30;2.60;;;;;;;;;;5074274;28;20492;-67
2022/08/12 09:46:51;;;;;;;58.10;2.40;;;;;;;;;;5074425;28;20965;-67
2022/08/12 09:49:18;;;;;;;57.67;2.27;;;;;;;;;;5073996;28;20824;-67
2022/08/12 09:51:47;;;;;;;58.30;2.60;;;;;;;;;;5073967;28;20849;-67
2022/08/12 09:54:16;;;;;;;58.10;2.63;;;;;;;;;;5074083;28;20459;-67
2022/08/12 09:56:44;;;;;;;58.07;2.63;;;;;;;;;;5074236;28;20450;-67
2022/08/12 09:59:11;;;;;;;58.17;2.60;;;;;;;;;;5073930;28;20448;-67
2022/08/12 10:01:39;;;;;;;57.90;2.60;;;;;;;;;;5073953;28;20498;-67
2022/08/12 10:04:08;;;;;;;58.07;2.47;;;;;;;;;;5074054;28;20446;-67
2022/08/12 10:06:35;;;;;;;57.80;2.17;;;;;;;;;;5073742;28;20487;-67
2022/08/12 10:09:04;;;;;;;57.57;2.40;;;;;;;;;;5073499;28;20444;-67
2022/08/12 10:14:16;;;;;;;58.30;2.60;;;;;;;;;;5073830;28;20853;-67
2022/08/12 10:16:44;;;;;;;57.67;2.23;;;;;;;;;;5072870;28;20477;-67
2022/08/12 10:19:11;;;;;;;57.60;2.40;;;;;;;;;;5073568;28;20456;-67
2022/08/12 10:21:40;;;;;;;57.70;2.27;;;;;;;;;;5073712;28;20857;-67
2022/08/12 10:24:09;;;;;;;57.50;2.50;;;;;;;;;;5073931;28;20483;-67
2022/08/12 10:29:40;;;;;;;57.53;2.43;;;;;;;;;;5073161;28;20975;-67
2022/08/12 10:32:09;;;;;;;57.20;2.30;;;;;;;;;;5073579;28;20463;-67
2022/08/12 10:34:36;;;;;;;57.60;2.57;;;;;;;;;;5073526;28;20479;-67
2022/08/12 10:37:04;;;;;;;57.37;2.40;;;;;;;;;;5073466;28;20447;-67
2022/08/12 10:39:35;;;;;;;57.23;1.93;;;;;;;;;;5072925;28;20439;-67
2022/08/12 10:44:49;;;;;;;56.87;1.80;;;;;;;;;;5073249;28;20415;-67
2022/08/12 10:47:18;;;;;;;57.20;2.40;;;;;;;;;;5073229;28;20451;-67
2022/08/12 10:49:45;;;;;;;57.43;2.23;;;;;;;;;;5072672;28;20486;-67
2022/08/12 10:52:12;;;;;;;56.93;1.90;;;;;;;;;;5072767;28;20482;-67
2022/08/12 10:54:42;;;;;;;56.80;2.10;;;;;;;;;;5073517;28;20444;-67
2022/08/12 10:57:09;;;;;;;56.80;2.20;;;;;;;;;;5072994;28;20446;-67
2022/08/12 10:59:37;;;;;;;56.70;1.90;;;;;;;;;;5072599;28;20451;-67
2022/08/12 11:02:05;;;;;;;56.57;1.93;;;;;;;;;;5072641;28;20515;-68
2022/08/12 11:04:34;;;;;;;57.10;2.30;;;;;;;;;;5072711;28;20439;-67
2022/08/12 11:07:02;;;;;;;57.43;2.20;;;;;;;;;;5073269;28;20451;-67
2022/08/12 11:09:31;;;;;;;56.80;2.13;;;;;;;;;;5072587;28;20450;-68
2022/08/12 11:12:01;;;;;;;56.87;2.10;;;;;;;;;;5072716;28;20834;-67
2022/08/12 11:14:31;;;;;;;56.90;2.20;;;;;;;;;;5072659;28;20458;-67
2022/08/12 11:16:59;;;;;;;56.87;2.20;;;;;;;;;;5072636;28;20448;-67
2022/08/12 11:19:26;;;;;;;58.37;2.87;;;;;;;;;;5072118;28;20827;-67
2022/08/12 11:21:54;;;;;;;56.37;2.10;;;;;;;;;;5072533;28;20511;-68
2022/08/12 11:24:21;;;;;;;57.60;2.20;;;;;;;;;;5072577;28;20816;-68
2022/08/12 11:26:49;;;;;;;56.40;2.00;;;;;;;;;;5072343;28;20449;-68
2022/08/12 11:29:17;;;;;;;56.57;1.83;;;;;;;;;;5072097;28;20470;-68
2022/08/12 11:31:45;;;;;;;56.50;2.00;;;;;;;;;;5072112;28;20461;-68
2022/08/12 11:34:12;;;;;;;55.57;1.83;;;;;;;;;;5072466;28;20447;-68
2022/08/12 11:36:40;;;;;;;56.70;2.00;;;;;;;;;;5072416;28;20443;-68
2022/08/12 11:39:07;;;;;;;56.80;2.17;;;;;;;;;;5071861;28;20448;-68
2022/08/12 11:41:38;;;;;;;56.47;2.10;;;;;;;;;;5071980;28;20487;-68
2022/08/12 11:44:05;;;;;;;57.60;2.50;;;;;;;;;;5072106;28;20454;-68
2022/08/12 11:46:36;;;;;;;59.03;3.07;;;;;;;;;;5072072;28;20439;-68
2022/08/12 11:49:03;;;;;;;56.70;2.17;;;;;;;;;;5071889;28;20443;-68
2022/08/12 11:51:31;;;;;;;56.90;2.40;;;;;;;;;;5071811;28;21007;-68
2022/08/12 11:53:58;;;;;;;56.30;2.00;;;;;;;;;;5072489;28;20457;-68
2022/08/12 11:56:26;;;;;;;56.67;2.07;;;;;;;;;;5072126;28;20447;-68
2022/08/12 11:58:53;;;;;;;56.27;2.00;;;;;;;;;;5071545;28;20443;-68
2022/08/12 12:01:21;;;;;;;56.90;2.37;;;;;;;;;;5071952;28;20491;-68
2022/08/12 12:03:49;;;;;;;57.00;2.50;;;;;;;;;;5072015;28;20529;-67
2022/08/12 12:06:19;;;;;;;57.23;2.40;;;;;;;;;;5071952;28;20531;-68
2022/08/12 12:08:46;;;;;;;57.33;2.40;;;;;;;;;;5071782;28;20447;-68
2022/08/12 12:11:13;;;;;;;57.30;2.30;;;;;;;;;;5071682;28;20467;-68
2022/08/12 12:13:40;;;;;;;57.47;2.70;;;;;;;;;;5072040;28;20477;-67
2022/08/12 12:16:08;;;;;;;57.57;2.47;;;;;;;;;;5071991;28;20454;-67
2022/08/12 12:18:35;;;;;;;57.57;2.43;;;;;;;;;;5071555;28;20456;-67
2022/08/12 12:21:05;;;;;;;59.80;3.50;;;;;;;;;;5071560;28;21002;-67
2022/08/12 12:23:33;;;;;;;58.40;2.30;;;;;;;;;;5071716;28;20485;-67
2022/08/12 12:26:00;;;;;;;57.07;2.27;;;;;;;;;;5071676;28;20497;-67
2022/08/12 12:28:27;;;;;;;57.00;2.37;;;;;;;;;;5071742;28;20470;-67
2022/08/12 12:30:54;;;;;;;57.00;2.33;;;;;;;;;;5071411;28;20478;-67
2022/08/12 12:33:22;;;;;;;57.40;2.20;;;;;;;;;;5071702;28;20850;-67
2022/08/12 12:35:49;;;;;;;57.13;2.30;;;;;;;;;;5071655;28;20451;-67
2022/08/12 12:38:18;;;;;;;58.20;2.50;;;;;;;;;;5071953;28;20534;-67
2022/08/12 12:40:47;;;;;;;57.40;2.30;;;;;;;;;;5075439;28;20446;-67
2022/08/12 12:43:14;;;;;;;57.17;2.10;;;;;;;;;;5075766;28;20454;-67
2022/08/12 12:45:42;;;;;;;57.30;2.10;;;;;;;;;;5075705;28;20451;-67
2022/08/12 12:48:10;;;;;;;59.40;2.70;;;;;;;;;;5075563;28;20522;-68
2022/08/12 12:50:38;;;;;;;57.07;2.00;;;;;;;;;;5075110;28;20447;-68
2022/08/12 12:53:05;;;;;;;56.90;2.07;;;;;;;;;;5075141;28;20466;-68
2022/08/12 12:55:34;;;;;;;57.33;2.60;;;;;;;;;;5075587;28;20449;-68
2022/08/12 12:58:03;;;;;;;57.20;2.10;;;;;;;;;;5075376;28;20451;-68
2022/08/12 13:00:31;;;;;;;57.10;2.57;;;;;;;;;;5074952;28;20451;-68
2022/08/12 13:02:58;;;;;;;57.70;2.60;;;;;;;;;;5075116;28;20820;-68
2022/08/12 13:05:27;;;;;;;56.87;2.43;;;;;;;;;;5075084;28;20447;-68
2022/08/12 13:07:55;;;;;;;56.80;2.10;;;;;;;;;;5075285;28;20877;-67
2022/08/12 13:10:22;;;;;;;56.87;2.17;;;;;;;;;;5074972;28;20447;-67
2022/08/12 13:12:51;;;;;;;57.07;2.03;;;;;;;;;;5075262;28;20463;-67
2022/08/12 13:15:18;;;;;;;56.67;2.03;;;;;;;;;;5075021;28;20831;-67
2022/08/12 13:17:48;;;;;;;57.00;2.30;;;;;;;;;;5074849;28;20538;-67
2022/08/12 13:20:15;;;;;;;57.00;2.17;;;;;;;;;;5074513;28;20447;-67
2022/08/12 13:22:43;;;;;;;56.97;2.10;;;;;;;;;;5074954;28;20830;-67
2022/08/12 13:25:10;;;;;;;56.40;2.07;;;;;;;;;;5074751;28;20539;-68
2022/08/12 13:27:40;;;;;;;56.77;2.50;;;;;;;;;;5074900;28;20447;-68
2022/08/12 13:30:11;;;;;;;57.60;2.20;;;;;;;;;;5074446;28;20482;-68
2022/08/12 13:32:38;;;;;;;56.47;2.20;;;;;;;;;;5074579;28;20473;-68
2022/08/12 13:35:05;;;;;;;58.30;2.47;;;;;;;;;;5074816;28;20447;-68
2022/08/12 13:37:33;;;;;;;56.53;2.10;;;;;;;;;;5074721;28;20458;-67
2022/08/12 13:40:00;;;;;;;56.77;1.93;;;;;;;;;;5074462;28;21019;-67
2022/08/12 13:42:27;;;;;;;56.73;2.30;;;;;;;;;;5074375;28;20493;-67
2022/08/12 13:44:54;;;;;;;56.37;2.03;;;;;;;;;;5074417;28;20455;-67
2022/08/12 13:47:23;;;;;;;56.70;2.10;;;;;;;;;;5074259;28;20451;-67
2022/08/12 13:49:51;;;;;;;56.77;2.10;;;;;;;;;;5073179;28;20516;-67
2022/08/12 13:52:18;;;;;;;56.73;2.20;;;;;;;;;;5073990;28;20471;-68
2022/08/12 13:54:47;;;;;;;56.97;2.43;;;;;;;;;;5074330;28;20454;-68
2022/08/12 13:57:14;;;;;;;56.77;2.10;;;;;;;;;;5074091;28;20504;-67
2022/08/12 13:59:43;;;;;;;58.00;2.50;;;;;;;;;;5074147;28;20931;-67
2022/08/12 14:02:12;;;;;;;57.60;2.70;;;;;;;;;;5074203;28;20487;-67
2022/08/12 14:04:40;;;;;;;57.13;2.20;;;;;;;;;;5074257;28;20867;-67
2022/08/12 14:07:07;;;;;;;58.77;2.50;;;;;;;;;;5074150;28;20618;-67
2022/08/12 14:10:35;;;;;;;57.47;2.10;;;;;;;;;;5073571;28;20454;-67
2022/08/12 14:12:23;;;;;;;56.77;2.20;;;;;;;;;;5073685;28;20868;-68
2022/08/12 14:14:50;;;;;;;56.80;2.17;;;;;;;;;;5074202;28;20451;-68
2022/08/12 14:17:18;;;;;;;56.87;2.43;;;;;;;;;;5073825;28;20451;-68
2022/08/12 14:22:33;;;;;;;57.00;2.50;;;;;;;;;;5073596;28;21006;-68
2022/08/12 14:25:01;;;;;;;57.13;2.03;;;;;;;;;;5073976;28;20530;-68
2022/08/12 14:27:28;;;;;;;57.00;2.50;;;;;;;;;;5073877;28;20447;-67
2022/08/12 14:29:56;;;;;;;56.80;2.30;;;;;;;;;;5073421;28;20453;-67
2022/08/12 14:32:23;;;;;;;56.80;2.00;;;;;;;;;;5073521;28;20470;-67
2022/08/12 14:34:52;;;;;;;56.83;2.00;;;;;;;;;;5073563;28;20541;-67
2022/08/12 14:37:19;;;;;;;57.17;2.40;;;;;;;;;;5073347;28;20535;-67
2022/08/12 14:39:46;;;;;;;57.23;2.20;;;;;;;;;;5073328;28;20454;-67
2022/08/12 14:42:13;;;;;;;56.80;2.13;;;;;;;;;;5073471;28;20873;-67
2022/08/12 14:44:40;;;;;;;57.00;2.10;;;;;;;;;;5073355;28;20450;-67
2022/08/12 14:47:08;;;;;;;57.10;2.30;;;;;;;;;;5073479;28;20478;-67
2022/08/12 14:49:35;;;;;;;57.00;2.20;;;;;;;;;;5072766;28;20443;-67
2022/08/12 14:52:05;;;;;;;57.20;2.40;;;;;;;;;;5073160;28;20478;-67
2022/08/12 14:54:32;;;;;;;57.20;2.10;;;;;;;;;;5073076;28;20498;-67
2022/08/12 14:56:59;;;;;;;57.47;2.07;;;;;;;;;;5073203;28;20530;-67
2022/08/12 15:02:19;;;;;;;57.50;2.17;;;;;;;;;;5072504;28;20478;-67
2022/08/12 15:04:46;;;;;;;57.80;2.37;;;;;;;;;;5073183;28;20458;-67
2022/08/12 15:07:15;;;;;;;57.50;2.10;;;;;;;;;;5073254;28;20455;-67
2022/08/12 15:09:42;;;;;;;59.33;2.30;;;;;;;;;;5072571;28;20554;-67
2022/08/12 15:12:11;;;;;;;57.90;2.60;;;;;;;;;;5072735;28;20472;-67
2022/08/12 15:14:41;;;;;;;57.60;2.37;;;;;;;;;;5072644;28;20451;-67
2022/08/12 15:17:09;;;;;;;57.60;2.37;;;;;;;;;;5072863;28;20455;-67
2022/08/12 15:19:36;;;;;;;60.63;2.40;;;;;;;;;;5072480;28;20443;-67
2022/08/12 15:22:03;;;;;;;57.40;2.10;;;;;;;;;;5072557;28;20483;-67
2022/08/12 15:24:36;;;;;;;57.40;2.20;;;;;;;;;;5072536;28;20454;-67
2022/08/12 15:27:03;;;;;;;57.40;2.47;;;;;;;;;;5072464;28;20452;-68
2022/08/12 15:29:30;;;;;;;57.17;2.23;;;;;;;;;;5072335;28;20454;-68
2022/08/12 15:31:59;;;;;;;56.93;2.17;;;;;;;;;;5072488;28;20470;-68
2022/08/12 15:34:27;;;;;;;57.00;2.40;;;;;;;;;;5072507;28;20444;-67
2022/08/12 15:36:54;;;;;;;56.90;2.10;;;;;;;;;;5072368;28;21080;-67
2022/08/12 15:39:21;;;;;;;56.93;2.30;;;;;;;;;;5072086;28;20454;-67
2022/08/12 15:41:49;;;;;;;56.80;1.97;;;;;;;;;;5072029;28;20487;-67
2022/08/12 15:44:16;;;;;;;57.70;2.17;;;;;;;;;;5072118;28;20932;-67
2022/08/12 15:46:43;;;;;;;57.60;2.40;;;;;;;;;;5072189;28;20443;-67
2022/08/12 15:49:11;;;;;;;57.80;2.50;;;;;;;;;;5071926;28;20443;-67
2022/08/12 15:51:38;;;;;;;57.47;2.20;;;;;;;;;;5071887;28;20490;-67
2022/08/12 15:54:06;;;;;;;59.07;2.20;;;;;;;;;;5072042;28;20447;-67
2022/08/12 15:56:35;;;;;;;58.10;2.67;;;;;;;;;;5072254;28;20801;-67
2022/08/12 15:59:04;;;;;;;57.97;2.30;;;;;;;;;;5071571;28;20940;-67
2022/08/12 16:01:31;;;;;;;57.53;2.07;;;;;;;;;;5072006;28;20463;-67
2022/08/12 16:03:58;;;;;;;57.87;2.40;;;;;;;;;;5071977;28;20570;-67
2022/08/12 16:06:26;;;;;;;57.93;2.30;;;;;;;;;;5071936;28;20547;-67
2022/08/12 16:08:53;;;;;;;57.70;2.10;;;;;;;;;;5071551;28;20443;-67
2022/08/12 16:11:20;;;;;;;58.83;2.73;;;;;;;;;;5071965;28;20510;-67
2022/08/12 16:13:48;;;;;;;57.90;2.60;;;;;;;;;;5071117;28;20475;-67
2022/08/12 16:16:16;;;;;;;57.60;2.20;;;;;;;;;;5071904;28;20443;-67
2022/08/12 16:18:44;;;;;;;58.30;2.30;;;;;;;;;;5071486;28;20450;-67
2022/08/12 16:21:11;;;;;;;58.37;2.97;;;;;;;;;;5071682;28;20840;-67
2022/08/12 16:23:39;;;;;;;57.57;2.00;;;;;;;;;;5071614;28;20574;-67
2022/08/12 16:26:08;;;;;;;57.67;2.23;;;;;;;;;;5071908;28;20443;-66
2022/08/12 16:28:35;;;;;;;57.47;2.40;;;;;;;;;;5071321;28;20443;-67
2022/08/12 16:31:03;;;;;;;57.90;2.30;;;;;;;;;;5071706;28;20463;-67